This is the latest recevied weather packets stored in our database for station/object W2TAO. If no packets are shown the sender has not sent any weather packets the latest 10 day(s).
| Time | Temp. | Humidity | Pressure | Rain* | Wind** | Luminosity | Snow |
|---|---|---|---|---|---|---|---|
| 1777658854 | 13.89° C | 44% | 1012.5 hPa | 0 mm | - | 832 W/m² | - |
| 1777658550 | 14.44° C | 45% | 1012.5 hPa | 0 mm | - | 276 W/m² | - |
| 1777658247 | 15° C | 41% | 1012.5 hPa | 0 mm | - | 819 W/m² | - |
| 1777657944 | 14.44° C | 42% | 1012.5 hPa | 0 mm | - | 812 W/m² | - |
| 1777657640 | 14.44° C | 44% | 1012.6 hPa | 0 mm | - | 421 W/m² | - |
| 1777657338 | 13.33° C | 44% | 1012.8 hPa | 0 mm | - | 192 W/m² | - |
| 1777657036 | 14.44° C | 44% | 1012.7 hPa | 0 mm | - | 830 W/m² | - |
| 1777656733 | 14.44° C | 46% | 1012.8 hPa | 0 mm | - | 865 W/m² | - |
| 1777656428 | 13.89° C | 42% | 1012.7 hPa | 0 mm | - | 851 W/m² | - |
| 1777656123 | 13.89° C | 48% | 1012.9 hPa | 0 mm | - | 841 W/m² | - |
| 1777655820 | 13.89° C | 47% | 1012.8 hPa | 0 mm | - | 923 W/m² | - |
| 1777655516 | 12.78° C | 47% | 1013 hPa | 0 mm | - | 244 W/m² | - |
| 1777655213 | 13.33° C | 50% | 1013 hPa | 0 mm | - | 965 W/m² | - |
| 1777654911 | 12.22° C | 49% | 1013.2 hPa | 0 mm | - | 279 W/m² | - |
| 1777654608 | 12.22° C | 52% | 1012.9 hPa | 0 mm | - | 231 W/m² | - |
| 1777654305 | 13.33° C | 48% | 1013.1 hPa | 0 mm | - | 872 W/m² | - |
| 1777654003 | 13.33° C | 45% | 1013.1 hPa | 0 mm | - | 843 W/m² | - |
| 1777653699 | 13.33° C | 52% | 1013.2 hPa | 0 mm | - | 838 W/m² | - |
| 1777653396 | 12.22° C | 52% | 1013.3 hPa | 0 mm | - | 901 W/m² | - |
| 1777653093 | 11.67° C | 49% | 1013.3 hPa | 0 mm | - | 869 W/m² | - |
| 1777652789 | 12.78° C | 52% | 1013.2 hPa | 0 mm | - | 858 W/m² | - |
| 1777652486 | 12.78° C | 46% | 1013.6 hPa | 0 mm | - | 865 W/m² | - |
| 1777652183 | 12.22° C | 52% | 1013.6 hPa | 0 mm | - | 876 W/m² | - |
| 1777651880 | 12.22° C | 49% | 1013.5 hPa | 0 mm | - | 873 W/m² | - |
| 1777651577 | 12.22° C | 49% | 1013.7 hPa | 0 mm | - | 866 W/m² | - |
* Rain latest hour (hover to see other rain measurements)
** Current wind speed in m/s (hover to see current wind gust speed)